createdAt,value
2022-11-12T00:02:36.665Z,2.37
2022-11-12T00:05:40.770Z,2.70
2022-11-12T00:08:44.570Z,2.50
2022-11-12T00:11:48.542Z,2.30
2022-11-12T00:14:52.446Z,2.80
2022-11-12T00:17:56.376Z,2.63
2022-11-12T00:21:00.162Z,2.10
2022-11-12T00:24:04.030Z,2.40
2022-11-12T00:27:08.006Z,2.20
2022-11-12T00:30:12.516Z,2.53
2022-11-12T00:33:16.615Z,2.20
2022-11-12T00:36:20.473Z,2.27
2022-11-12T00:39:24.628Z,2.80
2022-11-12T00:42:28.708Z,2.20
2022-11-12T00:45:32.752Z,2.40
2022-11-12T00:48:36.573Z,2.40
2022-11-12T00:51:41.234Z,2.50
2022-11-12T00:54:45.314Z,2.30
2022-11-12T00:57:49.398Z,2.20
2022-11-12T01:00:53.660Z,2.50
2022-11-12T01:03:59.955Z,2.47
2022-11-12T01:07:03.716Z,2.33
2022-11-12T01:10:10.146Z,2.50
2022-11-12T01:13:14.453Z,2.43
2022-11-12T01:16:21.396Z,2.70
2022-11-12T01:19:25.493Z,2.40
2022-11-12T01:22:29.401Z,2.50
2022-11-12T01:25:33.350Z,2.90
2022-11-12T01:28:37.921Z,2.30
2022-11-12T01:31:42.046Z,2.30
2022-11-12T01:34:46.026Z,2.43
2022-11-12T01:37:49.957Z,2.30
2022-11-12T01:40:53.968Z,2.27
2022-11-12T01:44:29.166Z,2.70
2022-11-12T01:47:35.199Z,2.53
2022-11-12T01:50:40.871Z,2.50
2022-11-12T01:53:50.050Z,2.60
2022-11-12T01:56:57.644Z,2.30
2022-11-12T02:00:08.827Z,2.20
2022-11-12T02:03:19.782Z,2.10
2022-11-12T02:06:24.922Z,2.30
2022-11-12T02:09:30.795Z,2.50
2022-11-12T02:13:10.378Z,2.33
2022-11-12T02:16:14.370Z,2.67
2022-11-12T02:19:18.477Z,2.37
2022-11-12T02:22:22.693Z,2.30
2022-11-12T02:25:27.101Z,2.20
2022-11-12T02:28:32.642Z,2.03
2022-11-12T02:31:36.881Z,2.20
2022-11-12T02:34:41.140Z,2.17
2022-11-12T02:37:45.220Z,2.33
2022-11-12T02:40:49.154Z,2.40
2022-11-12T02:43:53.229Z,2.13
2022-11-12T02:46:57.506Z,2.20
2022-11-12T02:50:01.899Z,2.33
2022-11-12T02:53:06.199Z,2.03
2022-11-12T02:56:10.105Z,2.40
2022-11-12T02:59:14.033Z,2.37
2022-11-12T03:02:17.935Z,2.30
2022-11-12T03:05:22.072Z,2.20
2022-11-12T03:08:26.668Z,2.53
2022-11-12T03:11:30.783Z,2.03
2022-11-12T03:14:34.989Z,2.50
2022-11-12T03:17:38.912Z,2.40
2022-11-12T03:20:42.897Z,1.90
2022-11-12T03:23:46.522Z,2.27
2022-11-12T03:26:50.464Z,2.27
2022-11-12T03:29:54.369Z,2.60
2022-11-12T03:32:58.434Z,2.13
2022-11-12T03:36:04.284Z,2.30
2022-11-12T03:39:08.141Z,2.30
2022-11-12T03:42:11.968Z,2.30
2022-11-12T03:45:16.600Z,1.90
2022-11-12T03:48:20.508Z,2.23
2022-11-12T03:51:24.645Z,2.07
2022-11-12T03:54:28.760Z,2.20
2022-11-12T03:57:33.861Z,2.30
2022-11-12T04:00:41.692Z,2.80
2022-11-12T04:03:46.034Z,2.17
2022-11-12T04:07:08.646Z,1.83
2022-11-12T04:10:12.727Z,2.10
2022-11-12T04:13:28.706Z,2.20
2022-11-12T04:16:51.319Z,2.43
2022-11-12T04:20:14.301Z,2.20
2022-11-12T04:23:18.559Z,2.17
2022-11-12T04:26:25.319Z,2.00
2022-11-12T04:29:47.898Z,2.40
2022-11-12T04:32:58.408Z,2.00
2022-11-12T04:36:02.769Z,2.27
2022-11-12T04:39:07.236Z,1.97
2022-11-12T04:42:30.209Z,2.40
2022-11-12T04:45:34.418Z,2.10
2022-11-12T04:48:38.337Z,2.30
2022-11-12T04:52:01.130Z,2.00
2022-11-12T04:55:06.097Z,1.80
2022-11-12T04:58:10.339Z,2.30
2022-11-12T05:01:14.249Z,1.93
2022-11-12T05:04:18.858Z,2.50
2022-11-12T05:07:22.926Z,2.23
2022-11-12T05:10:27.722Z,1.93
2022-11-12T05:13:31.891Z,2.10
2022-11-12T05:16:35.884Z,2.20
2022-11-12T05:19:40.001Z,2.00
2022-11-12T05:22:50.643Z,1.87
2022-11-12T05:26:03.309Z,2.23
2022-11-12T05:29:09.004Z,2.10
2022-11-12T05:32:15.826Z,2.53
2022-11-12T05:35:20.040Z,2.43
2022-11-12T05:38:24.154Z,2.17
2022-11-12T05:41:32.900Z,2.20
2022-11-12T05:44:49.044Z,2.20
2022-11-12T05:47:53.138Z,2.33
2022-11-12T05:51:13.549Z,2.30
2022-11-12T05:54:18.608Z,2.00
2022-11-12T05:57:22.528Z,2.07
2022-11-12T06:00:26.618Z,2.13
2022-11-12T06:03:31.291Z,2.10
2022-11-12T06:06:35.596Z,2.20
2022-11-12T06:09:39.858Z,2.00
2022-11-12T06:12:43.771Z,2.13
2022-11-12T06:15:47.666Z,1.83
2022-11-12T06:18:51.957Z,1.90
2022-11-12T06:21:55.838Z,2.00
2022-11-12T06:24:59.998Z,1.80
2022-11-12T06:28:04.082Z,2.03
2022-11-12T06:31:08.344Z,2.10
2022-11-12T06:34:12.528Z,2.03
2022-11-12T06:37:16.593Z,1.77
2022-11-12T06:40:20.699Z,2.10
2022-11-12T06:43:25.599Z,2.03
2022-11-12T06:46:30.216Z,1.90
2022-11-12T06:49:34.170Z,2.40
2022-11-12T06:52:38.057Z,2.17
2022-11-12T06:55:41.944Z,1.90
2022-11-12T06:58:45.853Z,1.67
2022-11-12T07:01:50.311Z,2.17
2022-11-12T07:04:54.064Z,2.00
2022-11-12T07:07:57.960Z,2.00
2022-11-12T07:11:02.692Z,2.10
2022-11-12T07:14:06.894Z,2.00
2022-11-12T07:17:10.897Z,2.23
2022-11-12T07:20:15.114Z,2.30
2022-11-12T07:23:19.123Z,2.03
2022-11-12T07:26:27.163Z,2.20
2022-11-12T07:29:46.788Z,2.17
2022-11-12T07:32:52.272Z,2.10
2022-11-12T07:36:01.603Z,1.97
2022-11-12T07:39:05.655Z,2.10
2022-11-12T07:42:09.701Z,1.87
2022-11-12T07:45:13.513Z,2.30
2022-11-12T07:48:17.262Z,1.80
2022-11-12T07:51:23.774Z,1.70
2022-11-12T07:54:27.870Z,1.83
2022-11-12T07:57:33.705Z,1.93
2022-11-12T08:00:37.950Z,1.90
2022-11-12T08:03:41.780Z,2.27
2022-11-12T08:06:45.812Z,1.80
2022-11-12T08:09:49.993Z,2.10
2022-11-12T08:12:56.447Z,2.17
2022-11-12T08:16:00.946Z,1.67
2022-11-12T08:19:04.994Z,2.00
2022-11-12T08:22:09.020Z,2.30
2022-11-12T08:25:12.803Z,2.13
2022-11-12T08:28:16.851Z,1.97
2022-11-12T08:31:23.389Z,2.20
2022-11-12T08:34:27.274Z,2.20
2022-11-12T08:37:30.929Z,2.27
2022-11-12T08:40:34.713Z,2.00
2022-11-12T08:43:40.117Z,2.00
2022-11-12T08:46:44.341Z,2.17
2022-11-12T08:49:48.446Z,1.60
2022-11-12T08:52:53.538Z,1.90
2022-11-12T08:55:58.317Z,1.90
2022-11-12T08:59:07.066Z,1.93
2022-11-12T09:02:14.662Z,2.07
2022-11-12T09:05:18.798Z,2.23
2022-11-12T09:08:25.291Z,2.30
2022-11-12T09:11:29.901Z,2.10
2022-11-12T09:14:34.130Z,2.30
2022-11-12T09:17:37.730Z,2.63
2022-11-12T09:20:41.925Z,2.53
2022-11-12T09:23:46.190Z,2.63
2022-11-12T09:26:53.230Z,2.90
2022-11-12T09:29:57.482Z,2.47
2022-11-12T09:33:01.358Z,2.90
2022-11-12T09:36:05.328Z,3.13
2022-11-12T09:39:09.486Z,2.23
2022-11-12T09:42:17.374Z,2.10
2022-11-12T09:45:29.787Z,2.30
2022-11-12T09:48:39.819Z,2.27
2022-11-12T09:51:51.678Z,2.63
2022-11-12T09:55:24.146Z,2.30
2022-11-12T09:58:28.635Z,2.43
2022-11-12T10:01:38.987Z,3.03
2022-11-12T10:05:02.181Z,2.97
2022-11-12T10:08:36.997Z,2.53
2022-11-12T10:12:24.016Z,3.60
2022-11-12T10:16:01.092Z,5.87
2022-11-12T10:19:38.664Z,8.63
2022-11-12T10:23:13.858Z,12.67
2022-11-12T10:26:21.166Z,20.83
2022-11-12T10:29:30.982Z,25.87
2022-11-12T10:32:37.050Z,38.47
2022-11-12T10:35:41.040Z,40.37
2022-11-12T10:38:48.599Z,45.87
2022-11-12T10:42:10.085Z,54.33
2022-11-12T10:45:22.566Z,59.47
2022-11-12T10:48:35.670Z,72.17
2022-11-12T10:51:40.426Z,95.37
2022-11-12T10:54:44.403Z,82.77
2022-11-12T10:58:07.462Z,102.70
2022-11-12T11:01:17.688Z,114.83
2022-11-12T11:04:32.402Z,122.33
2022-11-12T11:07:36.258Z,132.33
2022-11-12T11:10:40.190Z,134.50
2022-11-12T11:13:45.858Z,154.57
2022-11-12T11:17:02.012Z,159.93
2022-11-12T11:20:32.539Z,165.77
2022-11-12T11:23:50.273Z,177.10
2022-11-12T11:27:25.137Z,163.23
2022-11-12T11:30:29.041Z,174.77
2022-11-12T11:33:46.807Z,172.90
2022-11-12T11:37:10.320Z,164.47
2022-11-12T11:40:31.582Z,159.53
2022-11-12T11:43:48.162Z,144.70
2022-11-12T11:47:38.623Z,137.87
2022-11-12T11:51:14.654Z,129.67
2022-11-12T11:54:58.857Z,124.03
2022-11-12T11:58:21.565Z,117.60
2022-11-12T12:01:43.505Z,115.57
2022-11-12T12:05:22.928Z,110.83
2022-11-12T12:08:53.145Z,111.30
2022-11-12T12:12:26.935Z,109.50
2022-11-12T12:15:47.348Z,104.70
2022-11-12T12:19:17.928Z,104.70
2022-11-12T12:22:33.173Z,96.90
2022-11-12T12:25:41.297Z,98.20
2022-11-12T12:28:58.258Z,96.90
2022-11-12T12:32:18.347Z,93.27
2022-11-12T12:35:37.094Z,92.60
2022-11-12T12:39:12.095Z,90.20
2022-11-12T12:42:24.161Z,89.77
2022-11-12T12:45:46.412Z,87.17
2022-11-12T12:48:53.986Z,87.20
2022-11-12T12:51:59.288Z,83.70
2022-11-12T12:55:03.512Z,83.17
2022-11-12T12:58:30.018Z,79.97
2022-11-12T13:01:36.430Z,81.43
2022-11-12T13:04:54.123Z,82.33
2022-11-12T13:08:07.195Z,79.33
2022-11-12T13:12:01.626Z,77.27
2022-11-12T13:15:15.388Z,77.67
2022-11-12T13:18:37.988Z,74.03
2022-11-12T13:21:44.182Z,76.90
2022-11-12T13:25:07.622Z,74.20
2022-11-12T13:28:13.064Z,71.10
2022-11-12T13:31:27.923Z,68.63
2022-11-12T13:34:33.754Z,66.60
2022-11-12T13:37:47.205Z,67.07
2022-11-12T13:41:42.142Z,64.77
2022-11-12T13:44:50.923Z,63.50
2022-11-12T13:47:57.885Z,61.33
2022-11-12T13:51:06.097Z,56.83
2022-11-12T13:54:36.163Z,57.33
2022-11-12T13:57:40.961Z,54.97
2022-11-12T14:00:53.381Z,54.97
2022-11-12T14:03:57.908Z,52.50
2022-11-12T14:07:30.679Z,50.97
2022-11-12T14:10:56.389Z,50.33
2022-11-12T14:14:10.672Z,48.87
2022-11-12T14:17:36.785Z,48.30
2022-11-12T14:20:41.978Z,45.87
2022-11-12T14:23:47.785Z,43.60
2022-11-12T14:26:52.020Z,43.87
2022-11-12T14:30:08.461Z,43.43
2022-11-12T14:33:19.054Z,41.30
2022-11-12T14:36:24.082Z,40.47
2022-11-12T14:39:29.429Z,40.87
2022-11-12T14:42:35.110Z,41.00
2022-11-12T14:45:48.131Z,38.27
2022-11-12T14:48:58.083Z,38.77
2022-11-12T14:52:22.789Z,37.57
2022-11-12T14:55:32.065Z,36.80
2022-11-12T14:58:36.394Z,36.40
2022-11-12T15:05:27.420Z,34.20
2022-11-12T15:08:37.251Z,33.80
2022-11-12T15:11:49.056Z,32.63
2022-11-12T15:14:53.719Z,32.17
2022-11-12T15:18:07.140Z,32.77
2022-11-12T15:21:25.874Z,31.57
2022-11-12T15:24:37.054Z,31.43
2022-11-12T15:27:42.771Z,31.13
2022-11-12T15:31:07.606Z,29.20
2022-11-12T15:34:32.507Z,29.47
2022-11-12T15:37:42.377Z,29.43
2022-11-12T15:40:46.987Z,28.23
2022-11-12T15:43:51.169Z,27.50
2022-11-12T15:46:55.604Z,28.10
2022-11-12T15:49:59.842Z,27.17
2022-11-12T15:53:03.743Z,27.63
2022-11-12T15:56:19.225Z,26.60
2022-11-12T15:59:22.881Z,26.60
2022-11-12T16:02:27.200Z,26.40
2022-11-12T16:05:31.014Z,25.37
2022-11-12T16:08:34.904Z,25.03
2022-11-12T16:11:39.197Z,24.07
2022-11-12T16:14:43.784Z,24.57
2022-11-12T16:17:48.605Z,23.10
2022-11-12T16:20:52.770Z,24.67
2022-11-12T16:23:56.985Z,23.23
2022-11-12T16:27:02.371Z,21.90
2022-11-12T16:30:13.723Z,22.57
2022-11-12T16:33:17.792Z,20.93
2022-11-12T16:36:22.025Z,21.37
2022-11-12T16:39:26.123Z,21.37
2022-11-12T16:42:30.127Z,21.13
2022-11-12T16:45:38.659Z,20.13
2022-11-12T16:48:43.006Z,19.30
2022-11-12T16:51:46.901Z,20.40
2022-11-12T16:54:50.826Z,17.83
2022-11-12T16:57:54.741Z,19.47
2022-11-12T17:00:58.678Z,19.37
2022-11-12T17:04:03.055Z,18.87
2022-11-12T17:07:07.120Z,18.17
2022-11-12T17:10:12.021Z,17.73
2022-11-12T17:13:15.941Z,17.50
2022-11-12T17:16:19.791Z,17.10
2022-11-12T17:19:23.594Z,16.70
2022-11-12T17:22:27.537Z,17.63
2022-11-12T17:25:31.673Z,14.80
2022-11-12T17:28:35.819Z,16.77
2022-11-12T17:31:39.922Z,17.07
2022-11-12T17:34:43.891Z,15.83
2022-11-12T17:37:48.034Z,14.93
2022-11-12T17:40:55.929Z,15.27
2022-11-12T17:44:01.078Z,15.20
2022-11-12T17:47:05.260Z,14.70
2022-11-12T17:50:09.834Z,14.03
2022-11-12T17:53:14.536Z,13.93
2022-11-12T17:56:21.264Z,14.07
2022-11-12T17:59:25.337Z,13.37
2022-11-12T18:02:29.259Z,13.10
2022-11-12T18:05:33.118Z,13.50
2022-11-12T18:08:37.162Z,13.10
2022-11-12T18:11:49.885Z,13.30
2022-11-12T18:14:53.883Z,12.17
2022-11-12T18:17:57.605Z,11.73
2022-11-12T18:21:01.554Z,12.27
2022-11-12T18:24:06.438Z,11.20
2022-11-12T18:27:10.451Z,11.80
2022-11-12T18:30:19.108Z,11.90
2022-11-12T18:33:23.664Z,11.40
2022-11-12T18:36:28.500Z,11.43
2022-11-12T18:39:32.854Z,10.73
2022-11-12T18:42:36.993Z,10.90
2022-11-12T18:45:40.890Z,9.90
2022-11-12T18:48:44.973Z,10.63
2022-11-12T18:51:48.910Z,9.53
2022-11-12T18:54:52.910Z,9.80
2022-11-12T18:57:56.878Z,10.03
2022-11-12T19:01:06.189Z,9.50
2022-11-12T19:04:11.468Z,9.13
2022-11-12T19:07:15.564Z,9.10
2022-11-12T19:10:19.693Z,8.90
2022-11-12T19:13:23.673Z,9.10
2022-11-12T19:16:27.842Z,9.00
2022-11-12T19:19:31.934Z,8.90
2022-11-12T19:22:35.757Z,8.77
2022-11-12T19:25:39.658Z,8.37
2022-11-12T19:28:44.817Z,8.30
2022-11-12T19:31:48.720Z,8.20
2022-11-12T19:34:52.545Z,8.60
2022-11-12T19:37:56.099Z,8.37
2022-11-12T19:41:26.256Z,8.83
2022-11-12T19:44:30.497Z,8.30
2022-11-12T19:47:34.925Z,7.77
2022-11-12T19:50:38.638Z,7.80
2022-11-12T19:53:46.687Z,7.07
2022-11-12T19:56:50.540Z,6.90
2022-11-12T19:59:54.854Z,7.23
2022-11-12T20:02:59.139Z,7.50
2022-11-12T20:06:04.769Z,7.07
2022-11-12T20:09:10.112Z,7.10
2022-11-12T20:12:13.999Z,7.17
2022-11-12T20:15:18.050Z,6.57
2022-11-12T20:18:21.985Z,6.73
2022-11-12T20:21:26.596Z,6.93
2022-11-12T20:24:30.509Z,6.60
2022-11-12T20:27:34.567Z,7.20
2022-11-12T20:30:39.172Z,6.40
2022-11-12T20:33:43.162Z,6.10
2022-11-12T20:36:47.106Z,6.53
2022-11-12T20:39:50.945Z,5.83
2022-11-12T20:42:55.503Z,6.10
2022-11-12T20:46:01.201Z,6.27
2022-11-12T20:49:06.510Z,6.40
2022-11-12T20:52:10.599Z,6.33
2022-11-12T20:55:14.407Z,6.03
2022-11-12T20:58:18.528Z,6.50
2022-11-12T21:01:24.501Z,6.60
2022-11-12T21:04:28.454Z,5.93
2022-11-12T21:07:32.370Z,6.13
2022-11-12T21:10:36.136Z,6.50
2022-11-12T21:13:40.383Z,5.87
2022-11-12T21:16:44.380Z,6.07
2022-11-12T21:19:48.252Z,5.97
2022-11-12T21:22:52.014Z,5.67
2022-11-12T21:26:01.156Z,5.73
2022-11-12T21:29:05.421Z,4.97
2022-11-12T21:32:10.513Z,5.73
2022-11-12T21:35:14.617Z,5.67
2022-11-12T21:38:18.333Z,5.37
2022-11-12T21:41:24.549Z,5.27
2022-11-12T21:44:28.325Z,5.10
2022-11-12T21:47:32.293Z,5.17
2022-11-12T21:50:36.396Z,5.27
2022-11-12T21:53:41.558Z,5.13
2022-11-12T21:56:45.721Z,5.27
2022-11-12T21:59:49.464Z,5.47
2022-11-12T22:02:58.006Z,5.00
2022-11-12T22:06:03.161Z,5.37
2022-11-12T22:09:07.115Z,5.03
2022-11-12T22:12:10.970Z,5.33
2022-11-12T22:15:15.561Z,5.03
2022-11-12T22:18:21.754Z,5.13
2022-11-12T22:21:36.835Z,5.07
2022-11-12T22:24:43.526Z,5.37
2022-11-12T22:27:47.927Z,4.53
2022-11-12T22:30:52.551Z,4.80
2022-11-12T22:33:58.244Z,5.13
2022-11-12T22:37:02.044Z,5.33
2022-11-12T22:40:11.987Z,5.20
2022-11-12T22:43:17.286Z,4.73
2022-11-12T22:46:25.873Z,5.00
2022-11-12T22:49:29.692Z,4.37
2022-11-12T22:52:33.716Z,4.87
2022-11-12T22:55:37.713Z,5.10
2022-11-12T22:58:43.528Z,4.53
2022-11-12T23:01:47.278Z,4.50
2022-11-12T23:04:51.353Z,5.10
2022-11-12T23:07:55.345Z,4.67
2022-11-12T23:11:08.485Z,4.63
2022-11-12T23:14:12.676Z,4.73
2022-11-12T23:17:16.502Z,4.60
2022-11-12T23:20:20.310Z,4.77
2022-11-12T23:23:24.117Z,4.57
2022-11-12T23:26:33.398Z,4.90
2022-11-12T23:29:37.340Z,5.10
2022-11-12T23:32:40.996Z,4.63
2022-11-12T23:35:44.748Z,5.23
2022-11-12T23:38:48.843Z,5.10
2022-11-12T23:41:52.789Z,4.93
2022-11-12T23:44:56.638Z,4.03
2022-11-12T23:48:00.537Z,4.40
2022-11-12T23:51:07.273Z,5.00
2022-11-12T23:54:11.283Z,5.03
2022-11-12T23:57:14.919Z,4.10
